Time;durP1;ratioP1;P1;durP2;ratioP2;P2;SDS_P1;SDS_P2;PMS_P1;PMS_P2;Temp;Humidity;BMP_temperature;BMP_pressure;BME280_temperature;BME280_humidity;BME280_pressure;Samples;Min_cycle;Max_cycle;Signal;HPM_P1;HPM_P2
2023/01/08 00:02:13;;;;;;;8.07;7.57;;;9.00;51.40;;;;;;20439;6853;304269;-76
2023/01/08 00:04:39;;;;;;;7.97;7.17;;;9.10;51.50;;;;;;20694;6853;123445;-76
2023/01/08 00:07:04;;;;;;;7.60;6.90;;;8.90;51.50;;;;;;20682;6853;121000;-76
2023/01/08 00:09:30;;;;;;;6.93;6.45;;;8.60;51.90;;;;;;20697;6853;117674;-76
2023/01/08 00:11:55;;;;;;;7.40;6.73;;;8.20;52.20;;;;;;20659;6853;119250;-76
2023/01/08 00:14:21;;;;;;;9.70;8.90;;;7.90;52.50;;;;;;20476;6853;342250;-75
2023/01/08 00:16:46;;;;;;;8.77;8.17;;;8.00;52.80;;;;;;20696;6853;122496;-75
2023/01/08 00:19:12;;;;;;;8.13;7.53;;;8.00;52.60;;;;;;20689;6853;118732;-76
2023/01/08 00:21:38;;;;;;;7.43;6.93;;;7.80;53.00;;;;;;20708;6853;95732;-76
2023/01/08 00:24:04;;;;;;;9.63;8.93;;;7.80;53.80;;;;;;20460;6853;278624;-76
2023/01/08 00:26:32;;;;;;;8.40;7.80;;;7.80;53.80;;;;;;20691;6853;119296;-80
2023/01/08 00:28:57;;;;;;;8.50;7.80;;;7.80;53.50;;;;;;20698;6853;117140;-78
2023/01/08 00:31:23;;;;;;;8.20;7.50;;;7.60;53.70;;;;;;20698;6853;117161;-76
2023/01/08 00:33:49;;;;;;;8.53;8.03;;;7.70;54.50;;;;;;20476;6853;312203;-76
2023/01/08 00:36:14;;;;;;;8.10;7.50;;;7.70;54.50;;;;;;20669;6853;116943;-77
2023/01/08 00:38:40;;;;;;;9.45;8.77;;;7.70;54.10;;;;;;20472;6853;279670;-76
2023/01/08 00:41:07;;;;;;;8.43;7.83;;;7.90;53.50;;;;;;20689;6853;123920;-76
2023/01/08 00:43:32;;;;;;;9.48;8.77;;;7.80;53.00;;;;;;20472;6853;306120;-77
2023/01/08 00:45:58;;;;;;;7.78;7.28;;;7.90;52.80;;;;;;20678;6853;126864;-77
2023/01/08 00:48:24;;;;;;;7.40;6.90;;;7.60;53.70;;;;;;20693;6853;117306;-75
2023/01/08 00:50:50;;;;;;;7.40;6.83;;;7.60;53.10;;;;;;20645;6853;121402;-77
2023/01/08 00:53:15;;;;;;;8.65;8.05;;;7.40;53.40;;;;;;20474;6852;308205;-77
2023/01/08 00:55:41;;;;;;;7.23;6.63;;;7.60;53.80;;;;;;20688;6853;117010;-77
2023/01/08 00:58:07;;;;;;;9.20;8.60;;;7.60;53.60;;;;;;20463;6853;280997;-77
2023/01/08 01:00:32;;;;;;;8.70;8.20;;;7.80;54.00;;;;;;20485;6853;312083;-77
2023/01/08 01:02:58;;;;;;;8.25;7.75;;;8.40;52.70;;;;;;20476;6853;296941;-77
2023/01/08 01:05:24;;;;;;;7.47;6.97;;;8.30;52.60;;;;;;20693;6853;117141;-77
2023/01/08 01:07:50;;;;;;;7.20;6.60;;;8.30;52.60;;;;;;20690;6853;117205;-76
2023/01/08 01:10:15;;;;;;;6.53;6.03;;;8.00;52.90;;;;;;20672;6853;120831;-77
2023/01/08 01:12:41;;;;;;;7.00;6.53;;;7.70;53.30;;;;;;20687;6853;117112;-77
2023/01/08 01:15:06;;;;;;;8.20;7.70;;;7.50;53.70;;;;;;20471;6853;338113;-77
2023/01/08 01:17:32;;;;;;;7.20;6.60;;;7.70;53.90;;;;;;20666;6853;117249;-77
2023/01/08 01:19:58;;;;;;;7.00;6.50;;;7.70;53.60;;;;;;20675;6853;118440;-77
2023/01/08 01:22:23;;;;;;;7.80;7.30;;;7.60;53.80;;;;;;20477;6853;308123;-77
2023/01/08 01:24:49;;;;;;;7.25;6.75;;;7.70;54.20;;;;;;20661;6853;117195;-77
2023/01/08 01:27:14;;;;;;;8.18;7.60;;;7.80;54.10;;;;;;20417;6853;332363;-77
2023/01/08 01:29:40;;;;;;;7.70;7.10;;;7.90;53.80;;;;;;20639;6853;117074;-77
2023/01/08 01:32:05;;;;;;;7.37;6.87;;;8.00;53.60;;;;;;20625;6853;122325;-78
2023/01/08 01:34:31;;;;;;;6.00;5.60;;;7.70;53.70;;;;;;20650;6853;118084;-76
2023/01/08 01:36:58;;;;;;;6.40;6.00;;;7.60;54.00;;;;;;20635;6853;117275;-77
2023/01/08 01:39:23;;;;;;;7.55;7.05;;;7.50;54.30;;;;;;20392;6853;299433;-77
2023/01/08 01:41:49;;;;;;;7.87;7.28;;;7.70;54.50;;;;;;20427;6853;308081;-77
2023/01/08 01:44:34;;;;;;;7.73;7.23;;;8.10;54.00;;;;;;20407;6853;281499;-77
2023/01/08 01:47:00;;;;;;;7.68;7.18;;;8.50;53.50;;;;;;20424;6853;311268;-77
2023/01/08 01:49:25;;;;;;;6.83;6.30;;;8.80;52.80;;;;;;20636;6853;118255;-77
2023/01/08 01:51:51;;;;;;;8.02;7.53;;;8.70;52.80;;;;;;20480;6853;279826;-77
2023/01/08 01:54:17;;;;;;;7.78;7.28;;;8.70;52.90;;;;;;20465;6853;308267;-77
2023/01/08 01:56:42;;;;;;;7.90;7.32;;;8.90;52.50;;;;;;20479;6853;298549;-77
2023/01/08 01:59:09;;;;;;;7.12;6.62;;;9.10;51.80;;;;;;20683;6853;117247;-77
2023/01/08 02:01:35;;;;;;;7.68;7.18;;;8.90;52.10;;;;;;20467;6853;281423;-77
2023/01/08 02:04:01;;;;;;;6.60;6.10;;;8.90;52.10;;;;;;20667;6852;117854;-77
2023/01/08 02:06:32;;;;;;;6.17;5.77;;;8.80;52.30;;;;;;20677;6853;117261;-77
2023/01/08 02:09:08;;;;;;;7.13;6.67;;;8.50;52.70;;;;;;20483;6853;279029;-77
2023/01/08 02:11:44;;;;;;;7.83;7.23;;;8.90;53.20;;;;;;20463;6853;303637;-77
2023/01/08 02:14:20;;;;;;;6.93;6.43;;;8.90;52.50;;;;;;20674;6853;121893;-77
2023/01/08 02:16:56;;;;;;;6.83;6.30;;;8.50;52.80;;;;;;20679;6853;118588;-77
2023/01/08 02:19:21;;;;;;;8.07;7.57;;;8.50;52.80;;;;;;20467;6853;308529;-77
2023/01/08 02:21:50;;;;;;;8.35;7.75;;;8.60;53.10;;;;;;20456;6853;279416;-77
2023/01/08 02:24:16;;;;;;;7.53;6.93;;;8.90;52.50;;;;;;20523;6853;120429;-77
2023/01/08 02:26:41;;;;;;;7.33;6.73;;;8.80;52.30;;;;;;20671;6853;118230;-77
2023/01/08 02:29:08;;;;;;;8.53;8.03;;;8.70;53.00;;;;;;20473;6853;307785;-78
2023/01/08 02:31:33;;;;;;;8.40;7.80;;;8.70;52.60;;;;;;20473;6853;308605;-77
2023/01/08 02:33:59;;;;;;;7.40;6.97;;;8.90;52.00;;;;;;20460;6853;311986;-77
2023/01/08 02:36:24;;;;;;;7.30;6.80;;;9.10;51.70;;;;;;20696;6853;117385;-77
2023/01/08 02:39:00;;;;;;;7.43;6.87;;;9.00;51.70;;;;;;20473;6853;327760;-77
2023/01/08 02:41:26;;;;;;;7.00;6.50;;;9.00;52.70;;;;;;20677;6853;117114;-77
2023/01/08 02:43:51;;;;;;;6.63;6.13;;;8.80;52.20;;;;;;20679;6853;117531;-76
2023/01/08 02:46:17;;;;;;;7.37;6.78;;;8.60;52.60;;;;;;20469;6853;328431;-77
2023/01/08 02:48:45;;;;;;;7.18;6.70;;;8.60;52.90;;;;;;20464;6853;309098;-77
2023/01/08 02:51:20;;;;;;;6.07;5.67;;;8.90;52.60;;;;;;20690;6853;118691;-77
2023/01/08 02:53:46;;;;;;;7.35;6.87;;;8.80;53.10;;;;;;20443;6853;278131;-77
2023/01/08 02:56:18;;;;;;;6.62;6.03;;;8.90;52.60;;;;;;20665;6853;118273;-77
2023/01/08 07:07:55;;;;;;;4.80;4.50;;;9.80;56.30;;;;;;20762;6516;293052;-76
2023/01/08 07:10:20;;;;;;;5.00;4.70;;;9.90;56.60;;;;;;20486;6849;315356;-80
2023/01/08 07:12:46;;;;;;;4.67;4.23;;;9.90;56.50;;;;;;20709;6846;120898;-75
2023/01/08 07:15:12;;;;;;;4.30;4.00;;;9.30;57.00;;;;;;20709;6846;116828;-80
2023/01/08 07:17:38;;;;;;;4.70;4.30;;;9.30;57.00;;;;;;20490;6847;291158;-77
2023/01/08 07:20:04;;;;;;;4.05;3.85;;;9.30;57.80;;;;;;20480;6847;278495;-80
2023/01/08 07:22:29;;;;;;;4.10;3.90;;;9.50;57.70;;;;;;20495;6846;337245;-78
2023/01/08 07:24:55;;;;;;;4.13;3.63;;;9.70;57.50;;;;;;20493;6846;278588;-79
2023/01/08 07:27:21;;;;;;;3.17;3.08;;;9.80;57.20;;;;;;20499;6847;339041;-79
2023/01/08 07:29:46;;;;;;;3.10;2.90;;;9.90;57.10;;;;;;20711;6847;117144;-77
2023/01/08 07:32:12;;;;;;;3.60;3.40;;;9.70;57.90;;;;;;20506;6841;435490;-77
2023/01/08 07:34:38;;;;;;;12.43;11.05;;;9.70;57.90;;;;;;20527;6841;277878;-77
2023/01/08 07:37:04;;;;;;;3.60;3.47;;;9.90;58.10;;;;;;20519;6841;338105;-79
2023/01/08 07:39:30;;;;;;;2.90;2.77;;;10.00;56.90;;;;;;20734;6841;117010;-80
2023/01/08 07:41:55;;;;;;;3.15;2.75;;;9.90;57.80;;;;;;20498;6841;312769;-78
2023/01/08 07:44:22;;;;;;;4.00;3.70;;;9.90;58.50;;;;;;20721;6841;117748;-79
2023/01/08 07:46:48;;;;;;;2.65;2.45;;;9.70;58.40;;;;;;20486;6844;303223;-78
2023/01/08 07:49:14;;;;;;;2.50;2.40;;;9.70;59.00;;;;;;20667;6852;118484;-76
2023/01/08 07:51:40;;;;;;;3.12;2.92;;;9.80;59.60;;;;;;20466;6854;296854;-76
2023/01/08 07:54:06;;;;;;;3.30;3.10;;;9.70;59.50;;;;;;20670;6839;117756;-80
2023/01/08 07:56:31;;;;;;;7.28;6.80;;;9.70;59.30;;;;;;20507;6839;307870;-78
2023/01/08 07:58:57;;;;;;;10.40;9.40;;;9.70;59.70;;;;;;20694;6850;117547;-77
2023/01/08 08:01:24;;;;;;;8.97;8.20;;;9.70;59.50;;;;;;20481;6850;307734;-78
2023/01/08 08:03:48;;;;;;;8.05;7.25;;;9.70;60.10;;;;;;20476;6850;339472;-79
2023/01/08 08:06:14;;;;;;;5.60;5.10;;;10.00;58.90;;;;;;20664;6850;118670;-78
2023/01/08 08:08:41;;;;;;;4.57;4.17;;;9.90;59.50;;;;;;20481;6850;342564;-84
2023/01/08 08:11:06;;;;;;;2.50;2.30;;;10.00;59.00;;;;;;20701;6849;117535;-77
2023/01/08 08:13:33;;;;;;;2.00;1.90;;;9.90;59.80;;;;;;20516;6834;311582;-80
2023/01/08 08:16:05;;;;;;;1.83;1.73;;;10.00;59.30;;;;;;20727;6834;118412;-82
2023/01/08 08:18:31;;;;;;;2.70;2.10;;;9.90;60.00;;;;;;20758;6832;121729;-83
2023/01/08 08:20:57;;;;;;;2.10;1.92;;;9.50;60.60;;;;;;20766;6833;116918;-76
2023/01/08 08:23:22;;;;;;;1.77;1.67;;;9.50;60.60;;;;;;20762;6833;117008;-78
2023/01/08 08:25:49;;;;;;;2.27;2.07;;;9.30;61.00;;;;;;20759;6833;118987;-77
2023/01/08 08:28:14;;;;;;;2.50;2.40;;;9.20;61.30;;;;;;20521;6833;307600;-79
2023/01/08 08:30:39;;;;;;;2.62;2.45;;;9.40;62.00;;;;;;20523;6833;308013;-79
2023/01/08 08:33:05;;;;;;;2.50;2.40;;;9.80;61.60;;;;;;20527;6833;283505;-77
2023/01/08 08:35:31;;;;;;;2.42;2.25;;;10.10;60.00;;;;;;20535;6833;277741;-77
2023/01/08 08:37:56;;;;;;;2.70;2.50;;;10.30;59.30;;;;;;20464;6833;308264;-78
2023/01/08 08:40:24;;;;;;;2.53;2.40;;;10.30;58.50;;;;;;20703;6848;117903;-76
2023/01/08 08:42:56;;;;;;;2.20;2.10;;;10.30;58.50;;;;;;20706;6848;119437;-75
2023/01/08 08:45:21;;;;;;;2.70;1.73;;;10.00;59.10;;;;;;20699;6848;117194;-75
2023/01/08 08:47:47;;;;;;;2.17;1.97;;;9.70;60.60;;;;;;20709;6848;118135;-78
2023/01/08 08:50:13;;;;;;;2.90;2.37;;;9.70;62.00;;;;;;20535;6848;312124;-77
2023/01/08 08:52:39;;;;;;;2.60;2.40;;;9.70;61.90;;;;;;20499;6848;278627;-78
2023/01/08 08:55:05;;;;;;;2.70;2.50;;;10.00;60.60;;;;;;20489;6848;310396;-77
2023/01/08 08:57:30;;;;;;;2.60;2.50;;;10.30;60.00;;;;;;20483;6848;332278;-74
2023/01/08 08:59:56;;;;;;;3.07;2.60;;;10.50;59.40;;;;;;20470;6848;318351;-74
2023/01/08 09:02:21;;;;;;;2.60;2.50;;;10.70;59.10;;;;;;20709;6848;117363;-74
2023/01/08 09:04:47;;;;;;;2.73;2.63;;;10.50;58.90;;;;;;20473;6848;336719;-74
2023/01/08 09:07:12;;;;;;;2.70;2.50;;;10.50;59.50;;;;;;20434;6870;300021;-73
2023/01/08 09:09:38;;;;;;;2.30;2.20;;;10.60;59.20;;;;;;20637;6870;117346;-71
2023/01/08 09:12:04;;;;;;;2.78;2.58;;;10.50;59.50;;;;;;20410;6870;312782;-71
2023/01/08 09:14:30;;;;;;;2.87;2.70;;;10.40;59.40;;;;;;20434;6870;280127;-71
2023/01/08 09:16:56;;;;;;;2.70;2.60;;;10.60;59.20;;;;;;20427;6871;311978;-74
2023/01/08 09:19:22;;;;;;;2.60;2.40;;;10.60;58.60;;;;;;20641;6871;123691;-73
2023/01/08 09:21:47;;;;;;;2.27;2.10;;;10.60;58.60;;;;;;20644;6871;117135;-74
2023/01/08 09:24:14;;;;;;;2.75;2.47;;;10.30;59.10;;;;;;20398;6871;400719;-72
2023/01/08 09:26:41;;;;;;;2.60;2.40;;;10.60;59.70;;;;;;20382;6886;284670;-72
2023/01/08 09:29:07;;;;;;;2.57;2.47;;;10.50;59.60;;;;;;20637;6869;117828;-72
2023/01/08 09:31:32;;;;;;;2.60;2.50;;;10.50;59.40;;;;;;20635;6870;117677;-71
2023/01/08 09:33:57;;;;;;;2.53;2.33;;;10.30;60.00;;;;;;20404;6871;309573;-77
2023/01/08 09:36:23;;;;;;;2.50;2.25;;;10.40;60.50;;;;;;20597;6886;119549;-76
2023/01/08 09:38:49;;;;;;;2.50;2.30;;;10.20;60.50;;;;;;20641;6871;118435;-74
2023/01/08 09:41:29;;;;;;;2.20;2.00;;;10.20;60.50;;;;;;20640;6871;117229;-79
2023/01/08 09:43:54;;;;;;;2.20;2.10;;;10.00;60.90;;;;;;20627;6867;121982;-78
2023/01/08 09:46:20;;;;;;;2.10;2.00;;;9.90;62.20;;;;;;20658;6867;117692;-77
2023/01/08 09:48:46;;;;;;;2.10;2.00;;;9.80;62.50;;;;;;20423;6867;314194;-75
2023/01/08 09:51:11;;;;;;;2.07;1.90;;;10.00;61.80;;;;;;20653;6860;117517;-73
2023/01/08 09:53:38;;;;;;;2.03;1.92;;;10.10;61.30;;;;;;20667;6860;117068;-74
2023/01/08 09:56:04;;;;;;;2.42;2.25;;;10.00;61.30;;;;;;20437;6860;280304;-76
2023/01/08 09:58:32;;;;;;;2.42;2.20;;;10.20;61.50;;;;;;20434;6860;309154;-73
2023/01/08 10:00:58;;;;;;;2.07;1.90;;;10.50;60.70;;;;;;20636;6860;118940;-77
2023/01/08 10:03:28;;;;;;;2.30;2.20;;;10.50;60.20;;;;;;20463;6860;279474;-74
2023/01/08 10:05:53;;;;;;;2.50;2.30;;;10.60;60.30;;;;;;20425;6860;308237;-77
2023/01/08 10:08:19;;;;;;;1.97;1.87;;;10.90;59.90;;;;;;20655;6860;117494;-75
2023/01/08 10:10:48;;;;;;;2.17;1.97;;;10.80;59.60;;;;;;20672;6860;117332;-81
2023/01/08 10:13:13;;;;;;;2.43;2.33;;;10.60;60.00;;;;;;20443;6860;311984;-85
2023/01/08 10:15:39;;;;;;;2.33;2.22;;;10.70;60.20;;;;;;20464;6860;279493;-78
2023/01/08 10:18:04;;;;;;;1.80;1.70;;;10.90;59.50;;;;;;20619;6860;127247;-75
2023/01/08 10:20:31;;;;;;;1.77;1.67;;;10.70;59.60;;;;;;20657;6860;117516;-79
2023/01/08 10:22:57;;;;;;;2.23;2.03;;;10.50;60.50;;;;;;20620;6875;117380;-74
2023/01/08 10:25:23;;;;;;;1.60;1.50;;;10.50;60.00;;;;;;20618;6860;117439;-76
2023/01/08 10:27:55;;;;;;;1.40;1.30;;;10.30;60.90;;;;;;20658;6860;117322;-77
2023/01/08 10:30:22;;;;;;;1.50;1.50;;;10.20;60.50;;;;;;20594;6875;118726;-75
2023/01/08 10:32:48;;;;;;;1.60;1.50;;;10.20;60.80;;;;;;20509;6857;117449;-74
2023/01/08 10:35:14;;;;;;;1.40;1.40;;;10.30;60.70;;;;;;20449;6857;308944;-76
2023/01/08 10:37:45;;;;;;;1.50;1.40;;;10.30;60.70;;;;;;20439;6857;278646;-78
2023/01/08 10:40:16;;;;;;;1.40;1.30;;;10.80;59.60;;;;;;20652;6855;120072;-76
2023/01/08 10:42:41;;;;;;;1.13;1.13;;;10.80;59.00;;;;;;20659;6856;117111;-74
2023/01/08 10:45:11;;;;;;;1.05;1.05;;;10.70;59.30;;;;;;20681;6856;120268;-75
2023/01/08 10:47:37;;;;;;;1.07;1.07;;;10.60;59.70;;;;;;20650;6857;118988;-76
2023/01/08 10:50:03;;;;;;;1.13;1.10;;;10.70;59.20;;;;;;20451;6857;278940;-74
2023/01/08 10:52:31;;;;;;;1.10;1.10;;;10.70;59.20;;;;;;20464;6857;308575;-77
2023/01/08 10:54:58;;;;;;;1.47;1.20;;;11.10;57.80;;;;;;20474;6857;294647;-77
2023/01/08 10:57:24;;;;;;;1.20;1.10;;;11.50;57.10;;;;;;20430;6857;279146;-76
2023/01/08 10:59:49;;;;;;;1.03;1.03;;;11.70;56.30;;;;;;20457;6857;278171;-75
2023/01/08 11:02:31;;;;;;;1.05;1.05;;;12.00;55.70;;;;;;20657;6857;118436;-74
2023/01/08 11:04:59;;;;;;;0.70;0.70;;;11.90;55.70;;;;;;20635;6857;118920;-77
2023/01/08 11:07:24;;;;;;;1.00;0.90;;;11.60;56.20;;;;;;20471;6857;310727;-75
2023/01/08 11:09:50;;;;;;;1.00;1.00;;;11.70;56.10;;;;;;20466;6857;279335;-73
2023/01/08 11:12:35;;;;;;;0.80;0.80;;;11.90;55.40;;;;;;20444;6857;309665;-73
2023/01/08 11:15:01;;;;;;;0.93;0.90;;;12.20;54.90;;;;;;20670;6857;117207;-77
2023/01/08 11:17:26;;;;;;;0.90;0.90;;;12.10;55.10;;;;;;20458;6857;312601;-75
2023/01/08 11:19:52;;;;;;;0.70;0.70;;;12.10;54.90;;;;;;20680;6857;117723;-76
2023/01/08 11:22:20;;;;;;;0.93;0.93;;;12.10;55.00;;;;;;20442;6857;334443;-75
2023/01/08 11:24:46;;;;;;;0.90;0.90;;;12.10;54.60;;;;;;20595;6857;117188;-76
2023/01/08 11:27:11;;;;;;;0.98;0.98;;;12.10;54.90;;;;;;20410;6857;307987;-77
2023/01/08 11:29:37;;;;;;;0.90;0.90;;;12.20;55.10;;;;;;20444;6857;308989;-76
2023/01/08 11:32:06;;;;;;;1.35;1.00;;;12.50;55.30;;;;;;20602;6857;117750;-76
2023/01/08 11:34:42;;;;;;;1.10;1.10;;;12.40;55.10;;;;;;20430;6857;309467;-75
2023/01/08 11:37:11;;;;;;;1.10;1.10;;;12.50;54.50;;;;;;20666;6857;117578;-78
2023/01/08 11:39:36;;;;;;;1.10;1.00;;;12.40;54.70;;;;;;20443;6857;307981;-77
2023/01/08 11:42:13;;;;;;;1.00;1.00;;;12.40;54.70;;;;;;20665;6857;118061;-77
2023/01/08 11:44:48;;;;;;;1.00;1.00;;;12.40;54.70;;;;;;20453;6857;314731;-76
2023/01/08 11:47:13;;;;;;;1.00;0.90;;;12.50;55.00;;;;;;20666;6857;118817;-77
2023/01/08 11:49:55;;;;;;;0.80;0.80;;;12.40;55.20;;;;;;20651;6857;117248;-79
2023/01/08 11:52:31;;;;;;;1.17;0.90;;;12.30;55.40;;;;;;20663;6855;118614;-77
2023/01/08 11:55:23;;;;;;;0.70;0.70;;;12.10;55.80;;;;;;20664;6856;117108;-77
2023/01/08 11:57:48;;;;;;;0.73;0.73;;;11.90;56.10;;;;;;20681;6856;120982;-76
2023/01/08 12:00:13;;;;;;;1.17;1.07;;;11.80;56.40;;;;;;20645;6857;117528;-76
2023/01/08 12:02:52;;;;;;;1.70;1.50;;;11.70;56.50;;;;;;20407;6857;308125;-76
2023/01/08 12:05:34;;;;;;;1.10;1.00;;;11.90;55.00;;;;;;20468;6857;338148;-76
2023/01/08 12:08:22;;;;;;;0.70;0.70;;;12.40;54.40;;;;;;20659;6853;119054;-76
2023/01/08 12:11:11;;;;;;;0.80;0.80;;;12.40;54.10;;;;;;20679;6853;117723;-75
2023/01/08 12:13:50;;;;;;;0.90;0.90;;;12.20;54.30;;;;;;20470;6853;312122;-75
2023/01/08 12:16:48;;;;;;;0.80;0.80;;;12.30;53.70;;;;;;20652;6853;118820;-75
2023/01/08 12:19:30;;;;;;;0.80;0.80;;;12.30;53.70;;;;;;20690;6853;117221;-74
2023/01/08 12:22:24;;;;;;;1.07;0.80;;;12.10;54.20;;;;;;20365;6853;281477;-73
2023/01/08 12:25:15;;;;;;;0.93;0.88;;;12.20;53.90;;;;;;20466;6853;339218;-72
2023/01/08 12:27:44;;;;;;;0.70;0.70;;;12.50;53.40;;;;;;19620;7208;119962;-74
2023/01/08 12:30:23;;;;;;;0.90;0.90;;;12.50;53.40;;;;;;19980;6854;282518;-74
2023/01/08 12:33:49;;;;;;;0.77;0.77;;;12.50;52.70;;;;;;20688;6854;117852;-75
2023/01/08 12:36:15;;;;;;;0.97;0.70;;;12.50;52.70;;;;;;20631;6854;118889;-76
2023/01/08 12:38:43;;;;;;;1.20;0.67;;;12.10;54.60;;;;;;20683;6854;117427;-76
2023/01/08 12:41:07;;;;;;;0.83;0.83;;;12.10;53.90;;;;;;20686;6854;120108;-75
2023/01/08 12:43:32;;;;;;;0.80;0.80;;;12.00;54.20;;;;;;20405;6854;337652;-75
2023/01/08 12:45:58;;;;;;;0.77;0.77;;;12.20;53.90;;;;;;20622;6854;118273;-74
2023/01/08 12:48:23;;;;;;;0.80;0.80;;;12.20;53.70;;;;;;20480;6854;279578;-73
2023/01/08 12:51:06;;;;;;;0.80;0.80;;;12.70;52.30;;;;;;20472;6854;277609;-76
2023/01/08 12:53:42;;;;;;;0.90;0.90;;;13.00;51.40;;;;;;20455;6854;311628;-76
2023/01/08 12:56:08;;;;;;;0.70;0.70;;;13.00;51.40;;;;;;20641;6854;123027;-75
2023/01/08 12:59:13;;;;;;;1.12;0.80;;;12.80;51.60;;;;;;20653;6854;118487;-75
2023/01/08 13:02:05;;;;;;;1.23;1.00;;;12.50;52.20;;;;;;20686;6854;117291;-76
2023/01/08 13:04:38;;;;;;;0.80;0.80;;;12.20;52.80;;;;;;20437;6852;309313;-76
2023/01/08 13:07:03;;;;;;;0.73;0.73;;;12.40;52.90;;;;;;20685;6853;121351;-77
2023/01/08 13:09:29;;;;;;;0.70;0.70;;;12.40;52.90;;;;;;20687;6853;122002;-78
2023/01/08 13:11:55;;;;;;;1.87;1.00;;;12.20;53.30;;;;;;20668;6853;117527;-76
2023/01/08 13:14:20;;;;;;;0.80;0.80;;;12.00;53.60;;;;;;20417;6853;341770;-78
2023/01/08 13:16:46;;;;;;;1.07;1.00;;;12.10;53.70;;;;;;20668;6853;117279;-76
2023/01/08 13:19:24;;;;;;;0.82;0.82;;;12.20;53.70;;;;;;20677;6853;117041;-76
2023/01/08 13:21:50;;;;;;;0.90;0.90;;;12.00;53.80;;;;;;20466;6853;337109;-75
2023/01/08 13:24:35;;;;;;;0.97;0.87;;;12.10;52.90;;;;;;20653;6853;119382;-76
2023/01/08 13:27:18;;;;;;;0.70;0.70;;;12.10;52.90;;;;;;20671;6853;119216;-75
2023/01/08 13:29:46;;;;;;;0.70;0.70;;;11.90;53.20;;;;;;20479;6853;319411;-75
2023/01/08 13:32:49;;;;;;;0.80;0.80;;;12.10;52.40;;;;;;20454;6853;308085;-77
2023/01/08 13:35:14;;;;;;;0.82;0.82;;;12.40;52.10;;;;;;20488;6853;300842;-74
2023/01/08 13:37:40;;;;;;;0.60;0.60;;;12.60;51.80;;;;;;20701;6853;118448;-74
2023/01/08 13:40:33;;;;;;;0.82;0.82;;;12.60;51.80;;;;;;20430;6853;339896;-79
2023/01/08 13:42:58;;;;;;;0.90;0.90;;;12.70;51.50;;;;;;20486;6854;278934;-73
2023/01/08 13:45:24;;;;;;;0.70;0.70;;;12.90;51.10;;;;;;20692;6854;117724;-72
2023/01/08 13:47:50;;;;;;;0.80;0.80;;;12.80;51.30;;;;;;20479;6854;282207;-72
2023/01/08 13:50:15;;;;;;;0.65;0.65;;;12.80;51.40;;;;;;20677;6854;121773;-72
2023/01/08 13:52:44;;;;;;;1.00;1.00;;;12.80;51.80;;;;;;20463;6854;341753;-72
2023/01/08 13:55:14;;;;;;;0.90;0.90;;;12.90;51.40;;;;;;20475;6854;281911;-72
2023/01/08 13:57:40;;;;;;;1.40;1.00;;;13.20;50.80;;;;;;20458;6854;311995;-72
2023/01/08 14:00:06;;;;;;;0.90;0.90;;;13.70;49.40;;;;;;20452;6854;280161;-73
2023/01/08 14:02:32;;;;;;;0.93;0.93;;;13.70;49.30;;;;;;20476;6854;307178;-74
2023/01/08 14:04:57;;;;;;;1.20;1.10;;;13.90;49.00;;;;;;20450;6854;338026;-75
2023/01/08 14:07:23;;;;;;;2.05;1.12;;;14.10;48.00;;;;;;20684;6854;118058;-73
2023/01/08 14:09:49;;;;;;;0.80;0.80;;;13.90;48.30;;;;;;20690;6854;120032;-74
2023/01/08 14:12:20;;;;;;;1.30;1.20;;;13.50;48.20;;;;;;20461;6854;278866;-73
2023/01/08 14:14:54;;;;;;;1.05;1.00;;;13.60;48.30;;;;;;20468;6854;307662;-74
2023/01/08 14:17:21;;;;;;;1.10;1.03;;;13.70;48.30;;;;;;20486;6853;280090;-75
2023/01/08 14:19:49;;;;;;;1.00;1.00;;;13.80;47.90;;;;;;20463;6853;337199;-76
2023/01/08 14:22:18;;;;;;;1.07;0.70;;;13.60;49.00;;;;;;20676;6853;118513;-76
2023/01/08 14:24:48;;;;;;;17.33;16.15;;;13.50;48.60;;;;;;20454;6853;307224;-73
2023/01/08 14:27:23;;;;;;;1.60;1.50;;;13.40;48.50;;;;;;20461;6853;119087;-75
2023/01/08 14:29:49;;;;;;;1.10;1.10;;;13.30;49.20;;;;;;20342;6853;308559;-75
2023/01/08 14:32:18;;;;;;;0.90;0.90;;;13.40;49.40;;;;;;20461;6853;338162;-73
2023/01/08 14:34:44;;;;;;;1.57;0.93;;;13.30;49.20;;;;;;20676;6853;117135;-73
2023/01/08 14:37:13;;;;;;;1.10;1.10;;;13.20;49.60;;;;;;20683;6853;121630;-76
2023/01/08 14:39:38;;;;;;;0.90;0.90;;;12.90;50.20;;;;;;20447;6853;283295;-72
2023/01/08 14:45:03;;;;;;;1.17;1.00;;;13.10;49.90;;;;;;20691;6853;118572;-74
2023/01/08 14:47:28;;;;;;;1.20;1.10;;;12.90;50.10;;;;;;20464;6853;280420;-74
2023/01/08 14:49:54;;;;;;;1.30;1.20;;;12.90;50.20;;;;;;20454;6853;307793;-73
2023/01/08 14:52:20;;;;;;;1.10;1.00;;;13.10;51.10;;;;;;20696;6853;120919;-74
2023/01/08 14:54:48;;;;;;;0.93;0.90;;;13.00;50.50;;;;;;20686;6854;117400;-74
2023/01/08 14:57:14;;;;;;;0.97;0.97;;;12.70;50.90;;;;;;20473;6854;277828;-74
2023/01/08 14:59:39;;;;;;;0.90;0.90;;;12.70;50.60;;;;;;20449;6854;308571;-74
2023/01/08 15:02:05;;;;;;;1.20;1.20;;;12.90;50.20;;;;;;20454;6854;340490;-73
2023/01/08 15:04:31;;;;;;;0.90;0.90;;;13.10;49.70;;;;;;20692;6854;117907;-72
2023/01/08 15:07:03;;;;;;;1.20;1.20;;;13.00;50.00;;;;;;20475;6854;307679;-74
2023/01/08 15:09:32;;;;;;;1.20;1.10;;;13.00;50.00;;;;;;20469;6854;283799;-73
2023/01/08 15:11:57;;;;;;;1.60;1.40;;;13.10;49.70;;;;;;20445;6854;308594;-74
2023/01/08 15:14:23;;;;;;;7.07;6.50;;;13.30;49.50;;;;;;20682;6854;118665;-72
2023/01/08 15:16:49;;;;;;;2.87;2.67;;;13.00;49.60;;;;;;20469;6854;278330;-73
2023/01/08 15:19:14;;;;;;;2.50;2.40;;;13.00;50.10;;;;;;20462;6854;313491;-73
2023/01/08 15:21:50;;;;;;;1.97;1.87;;;13.10;49.90;;;;;;20675;6854;120237;-73
2023/01/08 15:24:29;;;;;;;1.57;1.40;;;12.90;50.00;;;;;;20643;6854;121231;-73
2023/01/08 15:26:54;;;;;;;1.80;1.70;;;12.50;50.60;;;;;;20470;6852;308365;-72
2023/01/08 15:29:22;;;;;;;1.20;1.20;;;12.50;50.90;;;;;;20693;6853;117506;-73
2023/01/08 15:31:48;;;;;;;1.70;1.60;;;12.40;50.90;;;;;;20444;6853;313440;-71
2023/01/08 15:34:15;;;;;;;6.90;6.40;;;12.40;51.10;;;;;;20669;6853;121155;-73
2023/01/08 15:36:41;;;;;;;2.55;2.45;;;12.30;51.20;;;;;;20456;6853;342127;-73
2023/01/08 15:39:07;;;;;;;4.62;4.32;;;12.20;51.30;;;;;;20680;6853;119691;-73
2023/01/08 15:44:21;;;;;;;4.25;4.05;;;11.90;51.60;;;;;;20470;6853;341748;-73
2023/01/08 15:46:47;;;;;;;2.60;2.40;;;12.00;51.90;;;;;;20685;6853;117278;-73
2023/01/08 15:49:13;;;;;;;2.50;2.30;;;11.90;51.80;;;;;;20482;6853;280544;-73
2023/01/08 15:51:41;;;;;;;3.07;2.90;;;11.90;51.80;;;;;;20477;6853;308185;-73
2023/01/08 15:54:07;;;;;;;2.80;2.70;;;12.20;51.80;;;;;;20450;6853;309367;-73
2023/01/08 15:56:32;;;;;;;2.07;1.93;;;12.40;51.40;;;;;;20682;6853;118180;-73
2023/01/08 15:58:58;;;;;;;2.30;2.00;;;12.20;51.30;;;;;;20695;6853;117780;-73
2023/01/08 16:01:23;;;;;;;2.87;2.70;;;11.80;51.80;;;;;;20693;6853;119270;-74
2023/01/08 16:03:50;;;;;;;6.77;6.37;;;11.60;52.50;;;;;;20468;6853;337939;-73
2023/01/08 16:06:15;;;;;;;5.87;5.47;;;11.60;52.50;;;;;;20669;6854;118664;-73
2023/01/08 16:08:44;;;;;;;6.80;6.30;;;11.60;52.60;;;;;;20688;6854;117207;-76
2023/01/08 16:11:07;;;;;;;6.00;5.60;;;11.40;52.90;;;;;;20679;6854;117334;-73
2023/01/08 16:13:33;;;;;;;5.00;4.70;;;11.10;53.50;;;;;;20691;6854;118795;-73
2023/01/08 16:15:58;;;;;;;3.67;3.47;;;11.10;53.50;;;;;;20668;6854;117587;-76
2023/01/08 16:18:24;;;;;;;3.08;2.87;;;11.00;53.80;;;;;;20477;6854;278825;-73
2023/01/08 16:20:50;;;;;;;3.10;2.90;;;11.30;53.80;;;;;;20691;6854;121620;-73
2023/01/08 16:23:15;;;;;;;2.70;2.60;;;11.30;53.50;;;;;;20438;6854;342100;-74
2023/01/08 16:25:41;;;;;;;3.10;2.90;;;11.50;53.30;;;;;;20687;6854;119484;-74
2023/01/08 16:28:07;;;;;;;3.63;3.20;;;11.50;53.30;;;;;;20669;6854;118280;-75
2023/01/08 16:30:35;;;;;;;3.47;3.28;;;11.20;53.70;;;;;;20694;6854;119671;-74
2023/01/08 16:32:59;;;;;;;3.30;3.10;;;11.20;53.70;;;;;;20682;6854;117140;-74
2023/01/08 16:35:24;;;;;;;3.80;3.50;;;11.00;53.90;;;;;;20466;6854;308335;-74
2023/01/08 16:37:50;;;;;;;3.20;3.00;;;11.20;53.80;;;;;;20481;6854;338994;-74
2023/01/08 16:40:16;;;;;;;3.10;2.90;;;11.60;53.20;;;;;;20682;6852;117341;-73
2023/01/08 16:42:42;;;;;;;2.77;2.60;;;11.70;52.70;;;;;;20478;6853;308892;-73
2023/01/08 16:45:08;;;;;;;2.60;2.40;;;11.60;52.30;;;;;;20699;6853;117259;-73
2023/01/08 16:47:37;;;;;;;2.40;2.30;;;11.60;52.40;;;;;;20682;6853;117287;-74
2023/01/08 16:50:03;;;;;;;3.08;2.87;;;11.50;52.50;;;;;;20454;6853;308118;-74
2023/01/08 16:52:28;;;;;;;4.93;2.53;;;11.50;52.50;;;;;;20689;6853;117781;-75
2023/01/08 16:54:54;;;;;;;2.20;2.10;;;11.40;52.40;;;;;;20691;6853;123390;-75
2023/01/08 16:57:20;;;;;;;2.80;2.70;;;11.20;52.70;;;;;;20476;6853;308260;-74
2023/01/08 16:59:45;;;;;;;2.80;2.60;;;11.30;52.60;;;;;;20476;6853;308532;-74
2023/01/08 17:02:11;;;;;;;2.50;2.40;;;11.60;52.00;;;;;;20674;6853;118511;-75